Time;durP1;ratioP1;P1;durP2;ratioP2;P2;SDS_P1;SDS_P2;PMS_P1;PMS_P2;Temp;Humidity;BMP_temperature;BMP_pressure;BME280_temperature;BME280_humidity;BME280_pressure;Samples;Min_cycle;Max_cycle;Signal;HPM_P1;HPM_P2
2022/03/25 00:01:01;;;;;;;142.80;57.15;;;2.20;99.90;;;0.67;86.19;102414.25;4929880;28;20039;-74
2022/03/25 00:03:27;;;;;;;144.25;59.63;;;2.20;99.90;;;0.65;86.34;102415.94;4928943;28;20445;-74
2022/03/25 00:05:53;;;;;;;169.98;67.38;;;2.20;99.90;;;0.65;86.74;102405.56;4913929;28;20115;-74
2022/03/25 00:08:19;;;;;;;156.77;63.03;;;2.20;99.90;;;0.65;86.84;102410.75;4931399;28;20045;-75
2022/03/25 00:10:45;;;;;;;154.25;61.65;;;2.20;99.90;;;0.64;87.59;102411.59;4930774;28;20071;-75
2022/03/25 00:13:11;;;;;;;162.38;66.32;;;2.10;99.90;;;0.65;87.90;102403.88;4928506;28;20028;-75
2022/03/25 00:15:37;;;;;;;147.85;60.90;;;2.10;99.90;;;0.64;88.29;102404.69;4931335;28;20030;-75
2022/03/25 00:18:03;;;;;;;153.70;60.13;;;2.20;99.90;;;0.64;88.95;102407.28;4928357;28;20579;-74
2022/03/25 00:20:29;;;;;;;153.35;63.88;;;2.10;99.90;;;0.65;88.98;102398.69;4933330;28;20788;-75
2022/03/25 00:22:55;;;;;;;152.38;62.17;;;2.20;99.90;;;0.66;89.24;102408.19;4945402;28;20507;-74
2022/03/25 00:25:21;;;;;;;139.75;59.78;;;2.20;99.90;;;0.68;89.15;102397.88;4913676;28;20020;-74
2022/03/25 00:27:47;;;;;;;146.70;58.72;;;2.20;99.90;;;0.69;89.28;102405.69;4929317;28;20105;-74
2022/03/25 00:30:13;;;;;;;182.18;69.30;;;2.20;99.90;;;0.68;89.60;102392.69;4928136;28;20411;-74
2022/03/25 00:32:40;;;;;;;172.40;68.10;;;2.20;99.90;;;0.66;89.29;102392.66;4928443;28;20031;-76
2022/03/25 00:35:07;;;;;;;175.20;66.32;;;2.10;99.90;;;0.65;89.93;102390.91;4928385;28;20552;-74
2022/03/25 00:37:33;;;;;;;196.10;72.68;;;2.10;99.90;;;0.65;90.00;102390.00;4929855;28;20039;-74
2022/03/25 00:39:59;;;;;;;201.15;76.95;;;2.10;99.90;;;0.66;90.36;102390.06;4943931;28;20547;-74
2022/03/25 00:42:25;;;;;;;205.07;75.43;;;2.10;99.90;;;0.69;91.21;102392.72;4927634;28;20086;-74
2022/03/25 00:44:51;;;;;;;185.90;71.05;;;2.20;99.90;;;0.70;91.28;102389.28;4933781;28;20031;-74
2022/03/25 00:47:18;;;;;;;200.13;72.40;;;2.20;99.90;;;0.68;91.93;102390.97;4931060;28;20141;-74
2022/03/25 00:49:44;;;;;;;179.48;67.22;;;2.20;99.90;;;0.68;91.96;102390.09;4929163;28;20512;-75
2022/03/25 00:52:11;;;;;;;175.40;66.55;;;2.10;99.90;;;0.66;92.06;102386.59;4950370;28;20122;-74
2022/03/25 00:54:37;;;;;;;188.10;68.80;;;2.10;99.90;;;0.64;92.12;102393.47;4920054;28;20440;-74
2022/03/25 00:57:03;;;;;;;162.60;63.83;;;2.10;99.90;;;0.65;92.46;102395.19;4947382;28;20122;-74
2022/03/25 00:59:29;;;;;;;201.63;72.85;;;2.10;99.90;;;0.67;92.72;102393.50;4937009;28;20182;-74
2022/03/25 01:01:56;;;;;;;199.77;74.20;;;2.10;99.90;;;0.68;92.66;102392.69;4934490;28;20062;-75
2022/03/25 01:04:22;;;;;;;189.75;69.68;;;2.20;99.90;;;0.67;92.51;102396.09;4916395;28;20027;-74
2022/03/25 01:06:48;;;;;;;186.77;71.32;;;2.10;99.90;;;0.67;93.14;102393.50;4933529;28;20062;-74
2022/03/25 01:09:14;;;;;;;184.00;73.60;;;2.10;99.90;;;0.65;92.92;102396.09;4935389;28;20369;-74
2022/03/25 01:11:40;;;;;;;189.05;70.70;;;2.10;99.90;;;0.65;92.42;102395.19;4935444;28;20030;-74
2022/03/25 01:14:08;;;;;;;186.52;71.50;;;2.10;99.90;;;0.64;92.75;102393.47;4931918;28;20478;-75
2022/03/25 01:16:35;;;;;;;196.73;77.53;;;2.10;99.90;;;0.64;92.81;102394.31;4931651;28;20058;-74
2022/03/25 01:19:03;;;;;;;201.10;75.78;;;2.10;99.90;;;0.63;92.77;102387.41;4932358;28;20043;-74
2022/03/25 01:21:29;;;;;;;158.80;64.30;;;2.10;99.90;;;0.63;93.26;102391.69;4933505;28;20131;-74
2022/03/25 01:23:56;;;;;;;161.15;61.95;;;2.10;99.90;;;0.61;93.26;102389.97;4934215;28;20035;-74
2022/03/25 01:26:23;;;;;;;153.48;60.25;;;2.10;99.90;;;0.58;92.51;102384.72;4933197;28;20489;-74
2022/03/25 01:28:49;;;;;;;180.40;70.05;;;2.10;99.90;;;0.57;92.96;102387.28;4932230;28;20034;-74
2022/03/25 01:31:15;;;;;;;191.48;72.18;;;2.10;99.90;;;0.58;92.85;102383.81;4933382;28;20034;-75
2022/03/25 01:33:41;;;;;;;188.00;69.53;;;2.10;99.90;;;0.56;93.10;102381.22;4933625;28;20031;-74
2022/03/25 01:36:07;;;;;;;147.73;59.75;;;2.10;99.90;;;0.55;93.01;102382.03;4930978;28;20031;-75
2022/03/25 01:38:34;;;;;;;143.45;59.67;;;2.00;99.90;;;0.52;93.13;102378.50;4932973;28;20030;-74
2022/03/25 01:41:00;;;;;;;145.93;60.28;;;2.00;99.90;;;0.51;92.58;102381.94;4935137;28;20019;-74
2022/03/25 01:43:27;;;;;;;166.13;65.57;;;2.00;99.90;;;0.48;92.09;102382.78;4932108;28;20016;-74
2022/03/25 01:45:54;;;;;;;145.88;60.55;;;2.00;99.90;;;0.47;92.53;102381.00;4933438;28;20079;-75
2022/03/25 01:48:21;;;;;;;130.48;56.05;;;2.00;99.90;;;0.45;92.38;102372.31;4933744;28;20094;-74
2022/03/25 01:50:49;;;;;;;146.02;58.25;;;1.90;99.90;;;0.43;92.08;102376.59;4931889;28;20027;-75
2022/03/25 01:53:24;;;;;;;145.00;60.00;;;1.90;99.90;;;0.39;91.64;102374.81;4931782;28;20495;-75
2022/03/25 01:55:59;;;;;;;165.07;62.75;;;1.90;99.90;;;0.35;91.46;102380.75;4931747;28;20060;-75
2022/03/25 01:58:28;;;;;;;161.15;63.70;;;1.80;99.90;;;0.30;91.10;102379.75;4929982;28;20039;-74
2022/03/25 02:00:55;;;;;;;166.43;62.65;;;1.80;99.90;;;0.24;90.95;102385.69;4932785;28;20048;-74
2022/03/25 02:03:21;;;;;;;173.52;67.18;;;1.70;99.90;;;0.19;91.77;102385.59;4934119;28;20118;-74
2022/03/25 02:05:49;;;;;;;194.27;70.00;;;1.70;99.90;;;0.17;91.43;102387.28;4925268;29;20504;-74
2022/03/25 02:08:15;;;;;;;182.02;64.78;;;1.70;99.90;;;0.15;92.17;102381.19;4920779;28;20145;-75
2022/03/25 02:10:42;;;;;;;205.60;71.75;;;1.70;99.90;;;0.16;92.76;102379.47;4932225;28;20389;-74
2022/03/25 02:13:10;;;;;;;211.15;74.60;;;1.70;99.90;;;0.19;93.09;102367.47;4933633;28;20392;-74
2022/03/25 02:15:40;;;;;;;208.70;73.45;;;1.70;99.90;;;0.22;94.16;102369.25;4930514;28;20040;-75
2022/03/25 02:18:12;;;;;;;176.23;67.15;;;1.70;99.90;;;0.25;94.62;102368.44;4930678;28;20024;-75
2022/03/25 02:20:40;;;;;;;183.38;68.88;;;1.70;99.90;;;0.24;94.35;102380.50;4932261;28;21063;-75
2022/03/25 02:23:07;;;;;;;188.45;68.32;;;1.70;99.90;;;0.24;94.01;102366.66;4914939;28;20035;-75
2022/03/25 02:25:33;;;;;;;178.45;67.22;;;1.70;99.90;;;0.26;94.62;102383.13;4930007;28;20031;-74
2022/03/25 02:28:03;;;;;;;181.05;68.70;;;1.70;99.90;;;0.25;94.32;102369.28;4933528;28;20567;-75
2022/03/25 02:30:29;;;;;;;176.02;63.67;;;1.80;99.90;;;0.26;94.26;102371.06;4933107;28;20062;-74
2022/03/25 02:33:01;;;;;;;158.77;64.05;;;1.80;99.90;;;0.26;94.06;102370.16;4929480;28;20198;-74
2022/03/25 02:35:48;;;;;;;179.55;66.57;;;1.80;99.90;;;0.26;94.11;102371.06;4931020;28;20027;-75
2022/03/25 02:38:18;;;;;;;175.88;67.53;;;1.80;99.90;;;0.27;94.60;102369.34;4947531;28;20055;-75
2022/03/25 02:40:45;;;;;;;179.85;69.13;;;1.80;99.90;;;0.27;94.07;102370.22;4947423;28;20030;-74
2022/03/25 02:43:12;;;;;;;191.02;70.35;;;1.80;99.90;;;0.28;94.36;102364.19;4933012;28;20126;-75
2022/03/25 02:45:40;;;;;;;195.10;73.25;;;1.80;99.90;;;0.31;94.40;102364.25;4933824;28;20035;-74
2022/03/25 02:48:07;;;;;;;197.00;70.50;;;1.80;99.90;;;0.35;94.86;102365.22;4932851;28;20476;-75
2022/03/25 02:50:33;;;;;;;195.15;70.72;;;1.80;99.90;;;0.39;95.25;102361.84;4930650;28;20049;-74
2022/03/25 02:53:01;;;;;;;181.38;68.03;;;1.90;99.90;;;0.40;95.87;102361.84;4934316;28;20034;-75
2022/03/25 02:55:27;;;;;;;177.32;68.35;;;1.90;99.90;;;0.42;96.15;102350.66;4914812;28;20090;-74
2022/03/25 02:57:54;;;;;;;177.32;67.45;;;1.90;99.90;;;0.40;95.84;102358.41;4930404;28;20500;-74
2022/03/25 03:00:22;;;;;;;158.00;64.55;;;1.80;99.90;;;0.38;95.65;102357.50;4948792;28;20054;-75
2022/03/25 03:02:48;;;;;;;177.20;66.35;;;1.90;99.90;;;0.35;95.06;102360.91;4946153;28;20036;-74
2022/03/25 03:05:17;;;;;;;178.52;68.18;;;1.80;99.90;;;0.31;95.00;102361.66;4932907;28;20040;-74
2022/03/25 03:07:48;;;;;;;197.10;69.95;;;1.80;99.90;;;0.24;94.81;102349.44;4932644;28;20053;-74
2022/03/25 03:10:15;;;;;;;178.45;66.22;;;1.70;99.90;;;0.18;95.14;102355.34;4929629;28;20048;-74
2022/03/25 03:12:41;;;;;;;179.35;63.30;;;1.70;99.90;;;0.13;95.03;102346.59;4931776;28;20019;-74
2022/03/25 03:15:09;;;;;;;184.52;65.40;;;1.70;99.90;;;0.11;94.61;102361.22;4929878;28;20066;-74
2022/03/25 03:17:35;;;;;;;167.73;65.40;;;1.60;99.90;;;0.09;94.51;102359.44;4932209;28;20027;-75
2022/03/25 03:20:02;;;;;;;178.38;66.38;;;1.60;99.90;;;0.06;94.49;102359.38;4932592;28;20038;-74
2022/03/25 03:22:29;;;;;;;174.75;62.70;;;1.60;99.90;;;0.03;94.63;102364.50;4913445;28;20042;-75
2022/03/25 03:24:55;;;;;;;171.65;62.47;;;1.50;99.90;;;-0.06;94.22;102365.16;4930721;28;20027;-74
2022/03/25 03:27:20;;;;;;;151.82;60.40;;;1.50;99.90;;;-0.12;95.31;102365.88;4931457;28;20039;-74
2022/03/25 03:29:46;;;;;;;157.02;60.20;;;1.40;99.90;;;-0.14;94.36;102366.69;4930410;28;20074;-75
2022/03/25 03:32:12;;;;;;;144.13;59.15;;;1.40;99.90;;;-0.17;94.67;102358.81;4940334;28;20050;-74
2022/03/25 03:34:38;;;;;;;168.75;61.83;;;1.40;99.90;;;-0.18;94.26;102360.53;4938094;28;20043;-74
2022/03/25 03:37:05;;;;;;;189.07;67.20;;;1.40;99.90;;;-0.18;94.34;102355.34;4930231;28;20045;-75
2022/03/25 03:39:31;;;;;;;175.10;66.25;;;1.40;99.90;;;-0.15;94.78;102362.31;4931450;28;20034;-74
2022/03/25 03:41:58;;;;;;;185.45;69.20;;;1.40;99.90;;;-0.13;95.13;102351.19;4929966;28;20047;-74
2022/03/25 03:44:25;;;;;;;190.20;69.60;;;1.40;99.90;;;-0.09;95.10;102362.47;4930041;28;20027;-74
2022/03/25 03:46:51;;;;;;;175.00;65.82;;;1.40;99.90;;;-0.07;95.59;102364.25;4931290;28;20039;-74
2022/03/25 03:49:17;;;;;;;191.02;68.97;;;1.50;99.90;;;-0.03;95.57;102357.44;4932938;28;20078;-74
2022/03/25 03:51:43;;;;;;;194.45;71.63;;;1.50;99.90;;;0.01;96.11;102364.44;4930403;28;20035;-74
2022/03/25 03:54:09;;;;;;;192.35;69.60;;;1.50;99.90;;;0.04;96.37;102366.22;4930581;28;20053;-74
2022/03/25 03:56:34;;;;;;;174.07;65.55;;;1.50;99.90;;;0.06;96.17;102367.13;4931565;28;20420;-74
2022/03/25 03:59:00;;;;;;;185.85;67.30;;;1.50;99.90;;;0.08;96.38;102357.69;4928616;28;20138;-74
2022/03/25 04:01:26;;;;;;;169.35;64.00;;;1.60;99.90;;;0.09;96.40;102362.03;4930703;28;20023;-75
2022/03/25 04:03:53;;;;;;;188.95;69.05;;;1.60;99.90;;;0.09;96.50;102360.31;4930495;28;20392;-75
2022/03/25 04:06:22;;;;;;;203.77;71.75;;;1.60;99.90;;;0.10;97.12;102351.69;4931090;28;20031;-75
2022/03/25 04:08:49;;;;;;;188.88;69.45;;;1.60;99.90;;;0.12;97.00;102352.59;4931953;28;20015;-75
2022/03/25 04:11:15;;;;;;;185.00;69.68;;;1.60;99.90;;;0.15;97.50;102349.19;4931881;28;22558;-74
2022/03/25 04:13:44;;;;;;;195.57;70.00;;;1.70;99.90;;;0.19;97.34;102351.03;4931489;28;20029;-74
2022/03/25 04:16:10;;;;;;;188.02;69.05;;;1.70;99.90;;;0.20;97.46;102351.06;4930654;28;20016;-74
2022/03/25 04:18:37;;;;;;;196.80;70.50;;;1.70;99.90;;;0.22;97.87;102342.44;4932205;28;20019;-75
2022/03/25 04:21:05;;;;;;;171.63;65.13;;;1.70;99.90;;;0.25;98.06;102350.28;4931552;28;20035;-74
2022/03/25 04:23:32;;;;;;;193.88;69.60;;;1.70;99.90;;;0.23;98.06;102349.38;4931648;28;20030;-74
2022/03/25 04:25:58;;;;;;;166.55;65.28;;;1.70;99.90;;;0.23;97.85;102355.44;4933013;28;20020;-75
2022/03/25 04:28:24;;;;;;;176.93;66.97;;;1.70;99.90;;;0.23;97.84;102354.56;4935361;28;20035;-75
2022/03/25 04:30:50;;;;;;;196.82;68.18;;;1.70;99.90;;;0.22;97.82;102347.63;4934469;28;20027;-75
2022/03/25 04:33:16;;;;;;;196.88;70.53;;;1.70;99.90;;;0.19;97.33;102349.34;4932937;28;20505;-75
2022/03/25 04:35:42;;;;;;;209.23;71.60;;;1.70;99.90;;;0.19;97.65;102354.50;4936460;28;20090;-74
2022/03/25 04:38:08;;;;;;;207.50;73.95;;;1.70;99.90;;;0.22;97.80;102353.69;4936299;28;20424;-74
2022/03/25 04:40:35;;;;;;;210.50;71.05;;;1.70;99.90;;;0.26;98.51;102355.53;4949835;28;20023;-75
2022/03/25 04:43:03;;;;;;;219.73;73.85;;;1.80;99.90;;;0.28;99.03;102347.75;4933743;28;20117;-75
2022/03/25 04:45:30;;;;;;;228.25;74.32;;;1.80;99.90;;;0.32;99.03;102352.16;4935465;28;20019;-75
2022/03/25 04:47:57;;;;;;;224.75;76.05;;;1.80;99.90;;;0.38;100.00;102360.94;4935052;28;20039;-74
2022/03/25 04:50:24;;;;;;;232.95;77.85;;;1.90;99.90;;;0.43;100.00;102349.81;4933104;28;20433;-74
2022/03/25 04:52:50;;;;;;;220.63;74.57;;;1.90;99.90;;;0.50;100.00;102352.56;4934589;28;20046;-75
2022/03/25 04:55:17;;;;;;;232.13;80.38;;;2.00;99.90;;;0.57;100.00;102358.75;4936433;28;20086;-74
2022/03/25 04:57:44;;;;;;;219.00;74.90;;;2.00;99.90;;;0.64;100.00;102357.16;4915047;28;20505;-75
2022/03/25 05:00:11;;;;;;;193.77;70.72;;;3.30;99.90;;;0.70;100.00;102362.47;4936734;28;20039;-74
2022/03/25 05:02:37;;;;;;;207.57;72.97;;;2.10;99.90;;;0.73;100.00;102362.53;4932622;28;20038;-75
2022/03/25 05:05:04;;;;;;;217.88;74.10;;;2.20;99.90;;;0.78;100.00;102361.78;4933770;28;20028;-75
2022/03/25 05:07:31;;;;;;;215.50;74.50;;;2.20;99.90;;;0.85;100.00;102360.19;4933706;28;20047;-75
2022/03/25 05:09:59;;;;;;;223.13;77.55;;;2.30;99.90;;;0.93;100.00;102366.41;4933565;28;20057;-75
2022/03/25 05:12:26;;;;;;;205.90;74.45;;;2.30;99.90;;;1.00;100.00;102363.06;4932896;28;20436;-74
2022/03/25 05:14:53;;;;;;;200.05;72.07;;;2.40;99.90;;;1.07;100.00;102369.25;4932264;28;20028;-75
2022/03/25 05:17:20;;;;;;;198.38;72.20;;;2.40;99.90;;;1.13;99.93;102374.56;4934554;28;20023;-75
2022/03/25 05:19:45;;;;;;;192.55;69.72;;;2.50;99.90;;;1.18;99.19;102369.44;4932344;28;20110;-75
2022/03/25 05:22:11;;;;;;;193.02;66.05;;;2.50;99.90;;;1.25;98.47;102379.09;4931979;28;20107;-74
2022/03/25 05:24:37;;;;;;;177.98;67.20;;;2.50;99.90;;;1.30;97.65;102377.47;4936618;28;20035;-74
2022/03/25 05:27:04;;;;;;;200.32;73.40;;;2.60;99.90;;;1.37;97.02;102368.94;4947194;28;20091;-74
2022/03/25 05:29:30;;;;;;;196.88;71.22;;;2.70;99.90;;;1.50;96.62;102374.34;4921796;28;20127;-75
2022/03/25 05:31:56;;;;;;;188.05;70.22;;;2.70;99.90;;;1.63;95.81;102374.56;4934983;28;20067;-74
2022/03/25 05:34:23;;;;;;;190.82;68.55;;;2.80;99.90;;;1.75;95.23;102375.63;4935221;28;21236;-75
2022/03/25 05:36:49;;;;;;;179.07;68.93;;;2.90;99.90;;;1.87;94.41;102375.81;4922470;28;20031;-74
2022/03/25 05:39:15;;;;;;;214.15;70.75;;;3.00;99.90;;;1.98;94.44;102383.78;4934402;28;20115;-75
2022/03/25 05:41:44;;;;;;;218.05;75.68;;;3.10;99.90;;;2.15;93.63;102382.31;4934978;28;20061;-75
2022/03/25 05:44:11;;;;;;;192.10;71.28;;;3.20;99.90;;;2.32;93.05;102389.50;4931274;28;20772;-75
2022/03/25 05:46:38;;;;;;;198.40;70.53;;;3.30;99.90;;;2.50;92.14;102383.66;4935127;28;20054;-75
2022/03/25 05:49:05;;;;;;;186.95;70.50;;;3.50;99.90;;;2.73;91.85;102387.44;4931247;28;20031;-75
2022/03/25 05:51:31;;;;;;;191.35;71.47;;;3.70;99.90;;;2.99;91.46;102390.34;4931036;28;20027;-75
2022/03/25 05:53:57;;;;;;;184.07;70.65;;;3.80;99.90;;;3.22;90.51;102394.94;4933222;28;20594;-75
2022/03/25 05:56:24;;;;;;;190.70;70.90;;;4.00;99.90;;;3.54;89.28;102397.84;4931563;28;20050;-75
2022/03/25 05:58:49;;;;;;;183.48;73.18;;;4.20;99.90;;;3.82;88.64;102392.88;4915423;28;20031;-75
2022/03/25 06:01:15;;;;;;;191.15;73.05;;;4.40;99.90;;;3.97;88.00;102395.59;4934127;28;20754;-75
2022/03/25 06:03:41;;;;;;;183.52;71.43;;;4.60;99.90;;;4.18;87.62;102401.84;4930982;28;20045;-75
2022/03/25 06:06:08;;;;;;;186.77;73.40;;;4.80;99.90;;;4.63;86.80;102395.16;4934594;28;20027;-75
2022/03/25 06:08:34;;;;;;;173.25;71.05;;;5.10;99.90;;;5.18;85.14;102402.28;4932017;28;20055;-77
2022/03/25 06:11:00;;;;;;;180.23;71.85;;;5.40;99.90;;;5.55;83.56;102395.41;4917202;28;20052;-74
2022/03/25 06:13:28;;;;;;;168.70;70.25;;;5.70;99.90;;;5.82;82.37;102401.53;4933491;28;20019;-76
2022/03/25 06:15:55;;;;;;;170.05;70.82;;;6.10;99.90;;;7.16;79.61;102416.00;4936219;28;20031;-75
2022/03/25 06:18:22;;;;;;;162.70;66.90;;;6.50;99.90;;;7.60;77.22;102416.59;4948560;28;20534;-75
2022/03/25 06:20:49;;;;;;;163.48;67.88;;;7.10;99.90;;;8.60;73.39;102420.97;4930770;28;20024;-75
2022/03/25 06:23:15;;;;;;;160.80;68.95;;;7.50;99.90;;;8.18;71.96;102423.13;4930661;28;20110;-74
2022/03/25 06:25:42;;;;;;;151.02;67.07;;;7.80;99.90;;;7.98;72.72;102424.16;4949825;28;20046;-76
2022/03/25 06:28:08;;;;;;;152.90;68.20;;;8.00;99.90;;;9.20;71.41;102428.09;4927948;28;20118;-75
2022/03/25 06:30:38;;;;;;;157.00;68.30;;;8.50;99.90;;;10.46;68.24;102434.00;4931398;28;20488;-75
2022/03/25 06:33:09;;;;;;;153.07;68.15;;;9.00;99.90;;;10.44;66.46;102427.88;4930076;28;20135;-75
2022/03/25 06:35:39;;;;;;;148.77;66.13;;;9.50;99.90;;;11.25;64.45;102431.50;4929399;28;20493;-75
2022/03/25 06:38:06;;;;;;;144.30;66.90;;;9.90;99.90;;;11.25;64.15;102436.78;4924145;28;20793;-75
2022/03/25 06:40:33;;;;;;;150.02;67.80;;;10.30;99.90;;;11.88;62.83;102437.09;4916056;28;20024;-75
2022/03/25 06:42:58;;;;;;;145.82;69.43;;;10.60;99.90;;;12.24;61.61;102437.06;4933095;28;20028;-76
2022/03/25 06:45:27;;;;;;;135.77;65.90;;;11.00;99.90;;;12.01;61.81;102433.25;4932620;28;20575;-75
2022/03/25 06:47:54;;;;;;;134.02;63.47;;;11.30;99.90;;;13.84;59.12;102448.22;4930364;28;20039;-75
2022/03/25 06:50:21;;;;;;;135.35;64.50;;;12.00;99.90;;;15.96;53.47;102443.03;4930052;28;20023;-75
2022/03/25 06:52:48;;;;;;;133.90;65.43;;;13.00;99.90;;;17.35;49.60;102459.03;4931248;28;20035;-76
2022/03/25 06:55:16;;;;;;;124.18;64.00;;;14.00;99.90;;;18.18;47.41;102470.94;4916746;28;20475;-74
2022/03/25 06:57:43;;;;;;;125.57;62.95;;;14.80;99.90;;;18.96;45.02;102487.34;4914264;28;20047;-75
2022/03/25 07:00:12;;;;;;;130.73;62.10;;;15.50;99.90;;;19.33;43.43;102483.53;4931080;28;20034;-75
2022/03/25 07:02:42;;;;;;;117.93;62.85;;;16.00;99.90;;;19.55;42.91;102487.66;4929931;28;20027;-75
2022/03/25 07:05:13;;;;;;;125.28;59.30;;;16.50;99.90;;;19.90;42.17;102515.06;4930222;28;20627;-75
2022/03/25 07:07:41;;;;;;;116.97;61.75;;;17.00;99.90;;;20.38;41.41;102523.84;4930444;28;20042;-75
2022/03/25 07:10:10;;;;;;;118.75;62.53;;;17.40;99.90;;;20.72;40.53;102537.91;4932081;28;20042;-75
2022/03/25 07:12:43;;;;;;;122.43;62.67;;;17.90;99.90;;;21.23;39.91;102532.06;4929057;28;20024;-75
2022/03/25 07:15:10;;;;;;;112.78;61.78;;;18.40;99.90;;;21.65;39.06;102541.03;4929934;28;20477;-76
2022/03/25 07:17:37;;;;;;;106.65;60.08;;;18.90;99.60;;;22.28;38.21;102544.94;4912254;28;20067;-75
2022/03/25 07:20:06;;;;;;;107.13;62.03;;;19.60;98.20;;;22.86;37.07;102562.41;4922930;28;20094;-76
2022/03/25 07:22:33;;;;;;;106.78;59.90;;;20.20;97.20;;;23.27;36.34;102563.19;4916731;28;20043;-75
2022/03/25 07:25:00;;;;;;;103.97;59.80;;;20.70;96.10;;;23.71;35.78;102569.84;4928544;28;20058;-75
2022/03/25 07:27:27;;;;;;;106.25;60.90;;;21.20;94.50;;;23.84;34.75;102584.13;4928997;28;20594;-75
2022/03/25 07:29:52;;;;;;;112.47;61.75;;;21.60;93.80;;;24.11;34.23;102588.44;4931875;28;20525;-76
2022/03/25 07:32:18;;;;;;;113.20;60.92;;;21.90;93.00;;;24.24;34.29;102594.63;4930042;28;20074;-75
2022/03/25 07:34:45;;;;;;;99.45;58.65;;;22.30;92.40;;;24.59;33.68;102603.72;4966076;28;20412;-75
2022/03/25 07:37:11;;;;;;;95.50;57.63;;;22.60;90.10;;;24.70;33.18;102609.97;4930977;28;20118;-75
2022/03/25 07:39:37;;;;;;;102.07;57.88;;;23.00;90.60;;;25.03;32.75;102612.84;4930513;28;20034;-75
2022/03/25 07:42:03;;;;;;;96.95;57.78;;;23.40;90.40;;;25.57;32.18;102618.44;4931500;28;20066;-76
2022/03/25 07:44:31;;;;;;;109.82;61.08;;;23.90;89.40;;;25.97;31.50;102628.69;4928034;28;20495;-75
2022/03/25 07:46:57;;;;;;;93.63;57.38;;;24.40;86.80;;;26.23;31.19;102627.50;4928974;28;20432;-75
2022/03/25 07:49:23;;;;;;;100.65;58.65;;;24.80;83.80;;;26.47;29.91;102630.00;4931214;28;20114;-75
2022/03/25 07:51:49;;;;;;;97.10;57.90;;;25.10;80.70;;;26.65;30.80;102646.50;4930620;28;20146;-75
2022/03/25 07:54:15;;;;;;;99.90;56.55;;;25.40;81.80;;;26.69;24.64;102656.91;4929786;28;20024;-75
2022/03/25 07:56:42;;;;;;;92.20;57.95;;;25.60;79.20;;;26.77;28.58;102653.56;4930406;28;20492;-75
2022/03/25 07:59:08;;;;;;;95.18;56.78;;;25.80;78.00;;;26.90;30.16;102662.34;4930690;28;20050;-76
2022/03/25 08:01:34;;;;;;;91.20;56.28;;;25.90;75.70;;;26.89;29.82;102670.56;4932282;28;20042;-76
2022/03/25 08:04:00;;;;;;;94.07;57.17;;;26.20;78.00;;;26.99;30.10;102676.91;4913435;28;20062;-76
2022/03/25 08:06:26;;;;;;;88.78;53.72;;;26.40;77.40;;;27.15;30.05;102682.72;4930119;28;20392;-76
2022/03/25 08:08:52;;;;;;;86.93;54.47;;;26.60;74.90;;;27.04;30.05;102690.91;4930607;28;20119;-76
2022/03/25 08:11:20;;;;;;;83.68;53.10;;;26.70;75.10;;;26.95;29.83;102748.44;4929536;28;20039;-76
2022/03/25 08:13:48;;;;;;;89.00;53.85;;;26.80;73.60;;;26.96;30.07;102831.25;4945151;29;20059;-76
2022/03/25 08:16:16;;;;;;;83.68;51.25;;;26.90;74.70;;;26.97;30.12;102830.25;4933244;28;20035;-75
2022/03/25 08:18:43;;;;;;;81.70;48.83;;;27.00;71.80;;;27.04;29.63;102707.13;4929957;28;20015;-76
2022/03/25 08:21:11;;;;;;;83.78;47.63;;;26.80;69.30;;;26.54;29.68;102709.50;4914200;28;20040;-76
2022/03/25 08:29:07;;;;;;;83.03;47.53;;;26.80;71.90;;;26.26;30.60;102713.66;4947114;28;20485;-76
2022/03/25 08:31:34;;;;;;;80.60;48.47;;;26.80;71.50;;;26.24;30.81;102689.50;4929193;28;20031;-76
2022/03/25 08:34:07;;;;;;;79.18;47.60;;;26.90;72.40;;;26.38;30.79;102712.66;4929563;28;20023;-76
2022/03/25 08:36:34;;;;;;;79.93;48.75;;;26.90;72.50;;;26.22;31.29;102740.06;4929800;28;20377;-76
2022/03/25 08:39:00;;;;;;;82.93;47.33;;;26.70;70.00;;;25.76;31.00;102757.22;4932307;28;20038;-76
2022/03/25 08:41:26;;;;;;;76.28;45.92;;;26.40;69.80;;;25.41;31.29;102698.84;4929562;28;20369;-76
2022/03/25 08:43:52;;;;;;;75.32;46.30;;;25.90;69.60;;;24.83;32.27;102730.25;4914466;28;20066;-76
2022/03/25 08:46:20;;;;;;;71.70;45.03;;;25.50;70.90;;;24.52;32.83;102736.13;4928613;28;20118;-76
2022/03/25 08:48:46;;;;;;;72.65;43.33;;;25.30;71.80;;;24.31;33.03;102718.84;4929720;28;20047;-77
2022/03/25 08:51:13;;;;;;;70.75;42.20;;;25.10;73.00;;;24.17;33.28;102722.56;4914829;28;20524;-77
2022/03/25 08:53:40;;;;;;;66.78;38.83;;;24.80;72.30;;;23.83;33.32;102711.53;4928226;28;20177;-76
2022/03/25 08:56:07;;;;;;;67.70;38.70;;;24.60;72.10;;;23.63;33.18;102728.19;4929538;28;20102;-76
2022/03/25 08:58:34;;;;;;;69.95;39.40;;;24.20;71.50;;;23.06;33.79;102724.06;4930548;28;20098;-76
2022/03/25 09:01:00;;;;;;;62.75;37.38;;;23.80;71.90;;;22.69;34.00;102723.81;4928181;28;20107;-76
2022/03/25 09:03:26;;;;;;;69.72;37.97;;;23.50;74.40;;;22.51;34.86;102712.50;4945098;28;20035;-76
2022/03/25 09:05:52;;;;;;;66.10;36.60;;;23.00;73.80;;;21.94;35.27;102713.44;4930996;28;20105;-76
2022/03/25 09:08:18;;;;;;;69.43;38.13;;;22.70;76.10;;;21.82;36.08;102706.19;4927703;28;20062;-76
2022/03/25 09:10:45;;;;;;;66.68;37.50;;;22.30;76.40;;;21.33;36.43;102718.06;4932926;28;20035;-76
2022/03/25 09:13:11;;;;;;;68.22;39.00;;;22.30;77.70;;;21.31;37.30;102701.22;4917836;28;20039;-76
2022/03/25 09:15:37;;;;;;;72.78;38.42;;;21.60;78.20;;;20.81;37.09;102697.09;4947975;28;20043;-75
2022/03/25 09:18:04;;;;;;;67.20;35.72;;;21.30;79.10;;;20.51;37.82;102697.03;4932868;28;20031;-76
2022/03/25 09:20:30;;;;;;;66.40;33.58;;;20.50;79.80;;;19.41;39.33;102688.78;4933497;28;20467;-76
2022/03/25 09:22:56;;;;;;;66.72;31.83;;;19.70;79.70;;;18.49;40.53;102686.31;4934654;28;20035;-75
2022/03/25 09:25:23;;;;;;;62.97;32.13;;;19.00;83.40;;;17.65;42.93;102677.78;4932486;28;20484;-76
2022/03/25 09:27:50;;;;;;;59.63;32.67;;;18.60;85.50;;;17.49;43.86;102669.59;4933643;28;20031;-76
2022/03/25 09:30:16;;;;;;;62.17;34.15;;;18.30;88.40;;;17.30;45.17;102666.91;4917893;28;20027;-75
2022/03/25 09:32:42;;;;;;;79.00;36.63;;;18.10;88.00;;;17.34;44.93;102659.63;4915126;28;20070;-75
2022/03/25 09:35:09;;;;;;;59.08;29.63;;;18.00;86.40;;;17.18;44.26;102656.81;4935338;28;20034;-76
2022/03/25 09:37:48;;;;;;;61.63;31.95;;;17.70;88.80;;;16.78;45.43;102656.69;4931273;28;20043;-75
2022/03/25 09:40:25;;;;;;;63.50;33.03;;;17.70;90.10;;;16.88;46.34;102657.19;4915806;28;20035;-75
2022/03/25 09:42:55;;;;;;;66.72;31.08;;;17.80;89.70;;;17.16;45.45;102646.22;4930557;28;20031;-74
2022/03/25 09:45:23;;;;;;;57.47;29.48;;;17.90;88.40;;;17.20;44.39;102649.63;4929636;28;20031;-74
2022/03/25 09:47:50;;;;;;;66.93;32.63;;;17.90;90.00;;;17.25;45.25;102644.09;4931797;28;20834;-74
2022/03/25 09:50:21;;;;;;;56.42;28.63;;;17.90;88.90;;;17.28;44.79;102638.59;4931126;28;20035;-75
2022/03/25 09:52:49;;;;;;;59.58;30.08;;;17.90;88.80;;;17.07;44.78;102651.94;4915396;28;20496;-75
2022/03/25 09:55:16;;;;;;;64.32;31.92;;;17.80;89.10;;;16.99;45.28;102638.09;4929957;28;20039;-75
2022/03/25 09:57:43;;;;;;;60.58;31.80;;;17.70;88.60;;;16.93;44.67;102641.91;4922909;28;20050;-75
2022/03/25 10:00:16;;;;;;;50.63;27.75;;;17.60;88.30;;;16.64;45.07;102640.44;4932058;28;20081;-75
2022/03/25 10:02:43;;;;;;;58.47;30.80;;;17.30;88.80;;;16.24;46.29;102634.13;4931648;28;20090;-74
2022/03/25 10:05:20;;;;;;;60.03;30.15;;;17.20;90.20;;;16.16;46.85;102631.75;4932895;28;20027;-74
2022/03/25 10:08:00;;;;;;;63.80;28.60;;;17.00;90.60;;;16.06;47.37;102632.16;4931815;28;20031;-75